• Join FlightAware (Why Join?)
  • Login
  • US Flag 
05:42AM EDT


 

Airport Tracker/Info


-or-


 

Live Flight TrackerFlight Track Log ✈ JBU972 ✈ 09-Oct-2013 ✈ KFLL - KLGA

Flight Track Log - Related Links

Times and Time Zones

All times are in EDT time to prevent confusion due to time zone crossing. See the JBU972 flight status page for this flight to view local times or setup timezone preferences in your user account.

Time Position Orientation Groundspeed Altitude Reporting Facility
EDT Latitude Longitude Course Direction KTS MPH feet Rate Location/Type
07:18AM 26.0742 -80.1692 55° Northeast 159 183 800  Level Miami Center
07:19AM 26.0717 -80.1897 262° West 139 160 1,900 2,280 Climbing Miami Center
07:20AM 26.1019 -80.2344 307° West 237 273 4,300 2,520 Climbing Miami Center
07:21AM 26.4279 -80.0243 53° Northeast  Level Estimated
07:21AM 26.1500 -80.1386 61° Northeast 299 344 8,200  Level Miami Center
07:22AM 26.5462 -79.9813 50° Northeast  Level Estimated
07:22AM 26.1708 -80.0467 76° East 299 344 10,600  Level Miami Center
07:23AM 26.5250 -79.8442 100° East  Level FlightAware Approximate
07:23AM 26.2006 -79.9364 73° East 332 382 12,900  Level Miami Center
07:24AM 26.6437 -79.8020 55° Northeast  Level Estimated
07:24AM 26.2258 -79.8236 76° East 360 414 15,800  Level Miami Center
07:25AM 26.2572 -79.7108 73° East 370 426 18,000 2,280 Climbing Miami Center
07:26AM 26.3264 -79.5967 56° Northeast 382 440 20,400 2,100 Climbing Miami Center
07:27AM 26.4169 -79.5431 28° Northeast 401 461 22,300 1,800 Climbing Miami Center
07:28AM 26.5333 -79.4714 29° Northeast 423 487 24,000 1,620 Climbing Miami Center
07:29AM 26.6283 -79.4131 29° Northeast 429 494 25,600 1,320 Climbing Miami Center
07:30AM 26.7400 -79.3481 27° Northeast 442 509 26,700 1,320 Climbing Miami Center
07:31AM 26.8667 -79.2739 28° Northeast 448 516 28,300 1,260 Climbing Miami Center
07:32AM 26.9806 -79.2133 25° Northeast 466 536 29,300 1,020 Climbing Miami Center
07:33AM 27.1092 -79.1272 31° Northeast 477 549 30,400 1,020 Climbing Miami Center
07:34AM 27.2336 -79.0547 27° Northeast 489 563 31,400 1,320 Climbing Miami Center
07:35AM 27.3622 -78.9800 27° Northeast 504 580 33,100 1,500 Climbing Miami Center
07:36AM 27.4758 -78.9214 25° Northeast 497 572 34,500 1,260 Climbing Miami Center
07:37AM 27.5997 -78.8556 25° Northeast 492 566 35,700 1,440 Climbing Miami Center
07:38AM 27.7408 -78.7831 24° Northeast 492 566 37,400 1,320 Climbing Miami Center
07:39AM 27.8628 -78.7169 26° Northeast 481 554 38,400 780 Climbing Miami Center
07:40AM 27.9806 -78.6531 26° Northeast 481 554 39,000 300 Climbing Miami Center
07:41AM 28.1044 -78.5867 25° Northeast 476 548 39,000  Level Miami Center
07:42AM 28.2242 -78.5200 26° Northeast 471 542 39,000  Level Miami Center
07:43AM 28.3503 -78.4511 26° Northeast 478 550 39,000  Level Miami Center
07:44AM 28.4633 -78.4103 18° North 478 550 39,000 -60 Level Miami Center
07:45AM 28.5933 -78.3647 17° North 485 558 38,900 -60 Descending Miami Center
07:46AM 28.7269 -78.3431 North 478 550 38,900  Level Miami Center
07:47AM 28.8567 -78.3303 North 477 549 39,000  Climbing Miami Center
07:48AM 28.9964 -78.3228 North 482 555 39,000 -60 Level Miami Center
07:49AM 29.1300 -78.3128 North 482 555 38,900 -60 Descending Miami Center
07:50AM 29.2639 -78.3025 North 477 549 38,900  Level Miami Center
07:51AM 29.3953 -78.2900 North 477 549 39,000  Climbing Miami Center
07:52AM 29.5269 -78.2797 North 477 549 39,000  Level Miami Center
07:53AM 29.6644 -78.2719 North 482 555 39,000  Level Miami Center
07:54AM 29.7939 -78.2594 North 477 549 39,000  Level Miami Center
07:55AM 29.8814 -78.2483 North 491 565 39,000  Level Jacksonville Center
07:56AM 30.0167 -78.2369 North 488 562 39,000  Level Jacksonville Center
07:57AM 30.1475 -78.2211 North 492 566 39,000  Level Jacksonville Center
07:58AM 30.2644 -78.2203 360° North 478 550 39,000  Level Jacksonville Center
07:59AM 30.4058 -78.2083 North 483 556 39,000  Level Jacksonville Center
08:00AM 30.5392 -78.1969 North 478 550 39,000  Level Jacksonville Center
08:01AM 30.6764 -78.1856 North 478 550 39,000  Level Jacksonville Center
08:02AM 30.8117 -78.1764 North 478 550 39,000  Level Jacksonville Center
08:03AM 30.9450 -78.1647 North 478 550 39,000  Level Jacksonville Center
08:04AM 31.0800 -78.1483 North 480 552 39,000  Level Jacksonville Center
08:05AM 31.2153 -78.1392 North 480 552 39,000  Level Jacksonville Center
08:06AM 31.3525 -78.1272 North 480 552 39,000  Level Jacksonville Center
08:07AM 31.4878 -78.1178 North 480 552 39,000  Level Jacksonville Center
08:08AM 31.6208 -78.1014 North 480 552 39,000 -60 Level Jacksonville Center
08:09AM 31.7581 -78.0869 North 480 552 38,900  Descending Jacksonville Center
08:10AM 31.8936 -78.0822 North 480 552 39,000  Climbing Jacksonville Center
08:11AM 32.0269 -78.0728 North 480 552 39,000 -60 Level Jacksonville Center
08:12AM 32.1619 -78.0608 North 480 552 38,900 -60 Descending Jacksonville Center
08:13AM 32.2953 -78.0514 North 475 547 38,900  Level Jacksonville Center
08:14AM 32.4306 -78.0392 North 475 547 39,000  Climbing Jacksonville Center
08:15AM 32.5656 -78.0247 North 475 547 39,000  Level Jacksonville Center
08:16AM 32.7008 -78.0147 North 475 547 39,000  Level Jacksonville Center
08:17AM 32.8342 -78.0053 North 475 547 39,000 -60 Level Jacksonville Center
08:18AM 32.9672 -77.9931 North 475 547 38,900  Descending Jacksonville Center
08:19AM 33.1003 -77.9833 North 475 547 39,000  Climbing Jacksonville Center
08:20AM 33.2314 -77.9736 North 475 547 38,900 -60 Descending Jacksonville Center
08:21AM 33.3808 -77.9614 North 487 560 38,900  Level Washington Center
08:22AM 33.4978 -77.9497 North 462 532 39,000  Climbing Washington Center
08:23AM 33.6294 -77.9386 North 462 532 39,000  Level Washington Center
08:24AM 33.7589 -77.9272 North 462 532 39,000  Level Washington Center
08:25AM 33.8633 -77.9178 North 462 532 39,000  Level Washington Center
08:26AM 34.0244 -77.9022 North 478 550 39,000  Level Washington Center
08:27AM 34.1603 -77.8933 North 478 550 39,000  Level Washington Center
08:28AM 34.2897 -77.8794 North 478 550 39,000 -60 Level Washington Center
08:29AM 34.4131 -77.8728 North 486 559 38,900  Descending Washington Center
08:30AM 34.5425 -77.8586 North 475 547 39,000  Climbing Washington Center
08:31AM 34.6744 -77.8447 North 475 547 39,000 -60 Level Washington Center
08:32AM 34.8039 -77.8306 North 470 541 38,900  Descending Washington Center
08:33AM 34.9442 -77.8142 North 465 535 39,000  Climbing Washington Center
08:34AM 35.0633 -77.7997 North 470 541 39,000  Level Washington Center
08:35AM 35.1950 -77.7856 North 470 541 39,000  Level Washington Center
08:36AM 35.3247 -77.7711 North 470 541 39,000  Level Washington Center
08:37AM 35.4564 -77.7569 North 470 541 39,000  Level Washington Center
08:38AM 35.5858 -77.7425 North 470 541 39,000  Level Washington Center
08:39AM 35.7156 -77.7308 North 470 541 39,000  Level Washington Center
08:40AM 35.8492 -77.7164 North 470 541 39,000  Level Washington Center
08:41AM 35.9811 -77.6967 North 470 541 39,000  Level Washington Center
08:42AM 36.1092 -77.6489 17° North 470 541 39,000  Level Washington Center
08:43AM 36.2333 -77.5953 19° North 470 541 39,000  Level Washington Center
08:44AM 36.3592 -77.5419 19° North 470 541 39,000  Level Washington Center
08:45AM 36.4917 -77.4831 20° North 465 535 39,000 -60 Level Washington Center
08:46AM 36.6156 -77.4292 19° North 459 528 38,900  Descending Washington Center
08:47AM 36.7394 -77.3778 18° North 464 534 39,000  Climbing Washington Center
08:48AM 36.8689 -77.3781 360° North 459 528 39,000  Level Washington Center
08:49AM 36.9886 -77.4564 332° Northwest 454 522 39,000  Level Washington Center
08:50AM 37.1083 -77.5347 332° Northwest 464 534 39,000  Level Washington Center
08:51AM 37.2392 -77.5694 348° North 476 548 39,000  Level Washington Center
08:52AM 37.3572 -77.4992 25° Northeast 446 513 39,000  Level Washington Center
08:53AM 37.4486 -77.3889 44° Northeast 418 481 39,000  Level Washington Center
08:54AM 37.5439 -77.2811 42° Northeast 436 502 39,000  Level Washington Center
08:55AM 37.6289 -77.1833 42° Northeast 441 507 39,000  Level Washington Center
08:56AM 37.7200 -77.0725 44° Northeast 447 514 39,000  Level Washington Center
08:57AM 37.8131 -76.9639 43° Northeast 452 520 39,000  Level Washington Center
08:58AM 37.9081 -76.8525 43° Northeast 452 520 39,000  Level Washington Center
08:59AM 38.0031 -76.7381 43° Northeast 452 520 39,000  Level Washington Center
09:00AM 38.1000 -76.6233 43° Northeast 452 520 39,100  Climbing Washington Center
09:01AM 38.1947 -76.5111 43° Northeast 457 526 39,000 -60 Descending Washington Center
09:02AM 38.2914 -76.3958 43° Northeast 462 532 39,000  Level Washington Center
09:03AM 38.4089 -76.2858 36° Northeast 462 532 39,000 -600 Level Washington Center
09:04AM 38.5200 -76.1833 36° Northeast 483 556 37,800 -2,160 Descending Washington Center
09:05AM 38.6350 -76.0833 34° Northeast 488 562 34,800 -2,940 Descending Washington Center
09:06AM 38.7481 -75.9775 36° Northeast 499 574 31,900 -2,880 Descending Washington Center
09:07AM 38.8589 -75.8717 37° Northeast 499 574 29,100 -2,640 Descending Washington Center
09:08AM 38.9631 -75.7758 36° Northeast 481 554 26,800 -1,680 Descending Washington Center
09:09AM 39.0633 -75.6825 36° Northeast 458 527 25,800 -1,080 Descending Washington Center
09:10AM 39.1592 -75.5864 38° Northeast 444 511 24,700 -1,140 Descending Washington Center
09:11AM 39.2550 -75.4950 36° Northeast 433 498 23,600 -1,320 Descending Washington Center
09:12AM 39.3489 -75.4144 34° Northeast 422 486 22,100 -1,440 Descending Washington Center
09:13AM 39.4403 -75.3336 34° Northeast 415 478 20,800 -1,380 Descending Washington Center
09:14AM 39.5256 -75.2581 34° Northeast 401 461 19,400 -1,260 Descending Washington Center
09:15AM 39.6108 -75.1767 36° Northeast 376 433 18,400 -720 Descending Washington Center
09:16AM 39.6856 -75.1089 35° Northeast 376 433 18,000 -780 Descending Washington Center
09:17AM 39.7767 -75.0300 34° Northeast 364 419 16,900 -1,140 Descending Washington Center
09:18AM 39.8514 -74.9672 33° Northeast 353 406 15,800 -1,800 Descending Washington Center
09:19AM 39.9500 -74.8667 38° Northeast 336 387 13,000 -1,860 Descending New York TRACON
09:20AM 40.0167 -74.7667 49° Northeast 309 356 11,800 -1,080 Descending New York TRACON
09:21AM 40.0667 -74.7000 46° Northeast 273 314 10,900 -900 Descending New York TRACON
09:22AM 40.1167 -74.6167 52° Northeast 286 329 10,100 -420 Descending New York TRACON
09:23AM 40.1667 -74.5500 46° Northeast 284 327 10,100 -720 Level New York TRACON
09:24AM 40.2167 -74.4833 46° Northeast 280 322 8,800 -1,500 Descending New York TRACON
09:25AM 40.2667 -74.4167 45° Northeast 271 312 7,200 -900 Descending New York TRACON
09:26AM 40.3167 -74.3500 45° Northeast 272 313 7,100 -60 Descending New York TRACON
09:27AM 40.3833 -74.2667 44° Northeast 269 310 7,100  Level New York TRACON
09:28AM 40.4333 -74.2167 37° Northeast 267 307 7,100 -300 Level New York TRACON
09:29AM 40.4833 -74.1500 45° Northeast 264 304 6,600 -1,440 Descending New York TRACON
09:30AM 40.5333 -74.0833 45° Northeast 253 291 4,100 -1,920 Descending New York TRACON
09:31AM 40.6000 -74.0333 30° Northeast 241 277 2,700 -780 Descending New York TRACON
09:32AM 40.6333 -74.0000 37° Northeast 215 247 2,700 -300 Level New York TRACON
09:33AM 40.6833 -73.9500 37° Northeast 180 207 2,200 -660 Descending New York TRACON
09:34AM 40.7167 -73.9333 21° North 127 146 1,400 -780 Descending New York TRACON
09:35AM 40.7333 -73.9000 57° Northeast 114 131 700 -720 Descending New York TRACON